createdAt,value
2022-10-22T00:01:01.279Z,17.98
2022-10-22T00:03:39.962Z,17.90
2022-10-22T00:06:07.845Z,19.35
2022-10-22T00:08:35.063Z,20.00
2022-10-22T00:11:18.838Z,18.55
2022-10-22T00:16:19.209Z,19.30
2022-10-22T00:18:46.338Z,20.70
2022-10-22T00:21:13.422Z,30.65
2022-10-22T00:23:42.948Z,22.85
2022-10-22T00:26:10.904Z,22.13
2022-10-22T00:28:39.415Z,21.75
2022-10-22T00:31:07.087Z,19.73
2022-10-22T00:33:34.450Z,18.90
2022-10-22T00:36:02.335Z,19.20
2022-10-22T00:38:29.457Z,19.00
2022-10-22T00:40:56.599Z,17.73
2022-10-22T00:43:23.990Z,19.15
2022-10-22T00:45:51.010Z,18.48
2022-10-22T00:48:31.422Z,18.35
2022-10-22T00:51:08.025Z,18.30
2022-10-22T00:53:47.609Z,17.67
2022-10-22T00:56:15.226Z,17.80
2022-10-22T00:58:49.128Z,17.27
2022-10-22T01:01:22.875Z,17.48
2022-10-22T01:03:50.715Z,17.40
2022-10-22T01:06:32.130Z,17.48
2022-10-22T01:09:20.374Z,17.35
2022-10-22T01:12:06.005Z,18.50
2022-10-22T01:15:17.924Z,17.33
2022-10-22T01:18:15.659Z,17.27
2022-10-22T01:21:15.718Z,16.27
2022-10-22T01:24:20.038Z,16.42
2022-10-22T01:27:11.475Z,16.40
2022-10-22T01:30:05.475Z,15.65
2022-10-22T01:32:50.632Z,14.98
2022-10-22T01:35:45.347Z,14.57
2022-10-22T01:38:22.338Z,15.77
2022-10-22T01:40:51.726Z,15.40
2022-10-22T01:43:19.232Z,15.32
2022-10-22T01:45:56.122Z,14.10
2022-10-22T01:49:11.890Z,15.10
2022-10-22T01:52:18.665Z,15.13
2022-10-22T01:55:03.049Z,14.00
2022-10-22T01:57:47.724Z,14.18
2022-10-22T02:00:18.933Z,14.32
2022-10-22T02:03:10.030Z,14.32
2022-10-22T02:05:53.988Z,13.95
2022-10-22T02:08:27.142Z,14.43
2022-10-22T02:10:57.410Z,14.20
2022-10-22T02:13:56.830Z,14.30
2022-10-22T02:16:47.689Z,14.25
2022-10-22T02:19:42.890Z,14.68
2022-10-22T02:22:10.993Z,15.57
2022-10-22T02:24:38.526Z,14.70
2022-10-22T02:27:47.101Z,14.85
2022-10-22T02:30:20.552Z,13.80
2022-10-22T02:33:21.065Z,14.57
2022-10-22T02:35:51.118Z,13.88
2022-10-22T02:38:19.957Z,14.48
2022-10-22T02:40:47.349Z,14.13
2022-10-22T02:43:14.844Z,13.85
2022-10-22T02:45:41.868Z,15.15
2022-10-22T02:48:09.272Z,14.65
2022-10-22T02:50:37.674Z,14.23
2022-10-22T02:53:04.769Z,13.98
2022-10-22T02:55:31.944Z,14.55
2022-10-22T02:57:59.320Z,16.40
2022-10-22T03:00:26.599Z,15.52
2022-10-22T03:02:53.756Z,15.90
2022-10-22T03:05:21.331Z,15.23
2022-10-22T03:07:48.442Z,15.00
2022-10-22T03:10:15.690Z,14.40
2022-10-22T03:12:42.954Z,14.45
2022-10-22T03:15:10.453Z,14.50
2022-10-22T03:17:38.086Z,13.70
2022-10-22T03:20:06.890Z,14.10
2022-10-22T03:22:38.282Z,14.60
2022-10-22T03:25:12.589Z,13.63
2022-10-22T03:27:41.707Z,13.75
2022-10-22T03:30:10.482Z,13.07
2022-10-22T03:32:37.622Z,13.50
2022-10-22T03:35:06.255Z,13.02
2022-10-22T03:37:35.699Z,13.27
2022-10-22T03:40:07.824Z,13.00
2022-10-22T03:42:35.517Z,13.63
2022-10-22T03:45:02.482Z,12.50
2022-10-22T03:47:29.749Z,12.38
2022-10-22T03:49:57.171Z,12.55
2022-10-22T03:52:24.445Z,12.38
2022-10-22T03:54:51.681Z,12.05
2022-10-22T03:57:18.942Z,12.50
2022-10-22T03:59:46.610Z,13.13
2022-10-22T04:02:14.618Z,12.70
2022-10-22T04:04:42.014Z,12.90
2022-10-22T04:07:09.233Z,12.23
2022-10-22T04:09:36.521Z,12.00
2022-10-22T04:12:09.462Z,11.23
2022-10-22T04:14:36.607Z,11.77
2022-10-22T04:17:05.154Z,12.05
2022-10-22T04:19:33.260Z,12.63
2022-10-22T04:22:01.009Z,12.68
2022-10-22T04:24:31.375Z,12.30
2022-10-22T04:26:59.489Z,12.88
2022-10-22T04:29:26.887Z,12.88
2022-10-22T04:31:54.317Z,12.38
2022-10-22T04:34:21.594Z,12.65
2022-10-22T04:36:48.747Z,12.10
2022-10-22T04:39:15.708Z,13.10
2022-10-22T04:41:43.244Z,12.32
2022-10-22T04:44:13.671Z,11.55
2022-10-22T04:46:44.537Z,11.43
2022-10-22T04:49:11.733Z,12.13
2022-10-22T04:51:38.934Z,11.95
2022-10-22T04:54:06.162Z,12.13
2022-10-22T04:56:33.492Z,11.43
2022-10-22T04:59:04.602Z,12.30
2022-10-22T05:01:42.964Z,12.20
2022-10-22T05:04:15.238Z,12.18
2022-10-22T05:06:43.429Z,12.48
2022-10-22T05:09:18.321Z,11.90
2022-10-22T05:11:49.681Z,11.95
2022-10-22T05:14:21.671Z,11.70
2022-10-22T05:16:50.166Z,11.25
2022-10-22T05:19:25.239Z,12.05
2022-10-22T05:21:56.598Z,12.20
2022-10-22T05:24:24.578Z,12.63
2022-10-22T05:26:53.650Z,12.20
2022-10-22T05:29:22.444Z,13.02
2022-10-22T05:31:49.775Z,13.35
2022-10-22T05:34:17.601Z,11.90
2022-10-22T05:36:45.325Z,12.15
2022-10-22T05:39:12.495Z,12.30
2022-10-22T05:41:39.953Z,12.10
2022-10-22T05:44:07.148Z,13.10
2022-10-22T05:46:36.297Z,13.38
2022-10-22T05:49:06.654Z,12.80
2022-10-22T05:51:36.836Z,12.75
2022-10-22T05:54:07.785Z,13.00
2022-10-22T05:56:37.361Z,12.60
2022-10-22T05:59:04.780Z,12.32
2022-10-22T06:01:35.494Z,14.00
2022-10-22T06:04:06.847Z,14.45
2022-10-22T06:06:37.253Z,14.73
2022-10-22T06:09:22.420Z,15.10
2022-10-22T06:11:50.874Z,14.27
2022-10-22T06:14:19.467Z,13.27
2022-10-22T06:16:47.160Z,14.07
2022-10-22T06:19:17.340Z,13.98
2022-10-22T06:21:45.808Z,14.32
2022-10-22T06:24:13.510Z,13.45
2022-10-22T06:26:41.806Z,12.88
2022-10-22T06:29:09.822Z,13.18
2022-10-22T06:31:37.149Z,13.10
2022-10-22T06:34:08.637Z,13.63
2022-10-22T06:36:37.033Z,14.07
2022-10-22T06:39:05.575Z,14.73
2022-10-22T06:41:33.019Z,14.93
2022-10-22T06:44:00.265Z,16.05
2022-10-22T06:46:28.452Z,16.02
2022-10-22T06:49:03.080Z,15.95
2022-10-22T06:51:30.567Z,14.73
2022-10-22T06:53:59.236Z,16.17
2022-10-22T06:56:29.376Z,15.93
2022-10-22T06:58:58.610Z,15.70
2022-10-22T07:01:33.181Z,15.27
2022-10-22T07:04:00.929Z,15.50
2022-10-22T07:06:29.672Z,15.93
2022-10-22T07:08:59.746Z,14.85
2022-10-22T07:11:32.781Z,14.65
2022-10-22T07:14:00.385Z,14.55
2022-10-22T07:16:31.309Z,14.07
2022-10-22T07:19:04.448Z,13.90
2022-10-22T07:21:32.270Z,13.18
2022-10-22T07:23:59.645Z,12.77
2022-10-22T07:26:31.245Z,12.98
2022-10-22T07:29:01.250Z,14.60
2022-10-22T07:31:29.273Z,15.05
2022-10-22T07:33:57.568Z,14.38
2022-10-22T07:36:25.207Z,13.25
2022-10-22T07:39:00.275Z,13.32
2022-10-22T07:41:30.155Z,13.38
2022-10-22T07:43:58.956Z,13.10
2022-10-22T07:46:26.849Z,12.85
2022-10-22T07:48:54.991Z,12.07
2022-10-22T07:51:23.499Z,12.45
2022-10-22T07:53:50.681Z,12.40
2022-10-22T07:56:18.168Z,12.48
2022-10-22T07:58:45.212Z,12.38
2022-10-22T08:01:12.540Z,12.10
2022-10-22T08:03:40.117Z,12.23
2022-10-22T08:06:07.710Z,11.80
2022-10-22T08:08:34.839Z,11.63
2022-10-22T08:11:02.388Z,12.15
2022-10-22T08:13:32.825Z,12.25
2022-10-22T08:16:01.242Z,11.77
2022-10-22T08:18:29.815Z,12.02
2022-10-22T08:20:58.054Z,12.88
2022-10-22T08:23:28.323Z,12.07
2022-10-22T08:25:57.329Z,12.32
2022-10-22T08:28:24.744Z,12.93
2022-10-22T08:30:51.955Z,12.27
2022-10-22T08:33:19.347Z,12.45
2022-10-22T08:35:51.770Z,12.88
2022-10-22T08:38:20.255Z,13.18
2022-10-22T08:40:54.138Z,12.38
2022-10-22T08:43:37.837Z,13.07
2022-10-22T08:46:40.375Z,12.75
2022-10-22T08:49:20.652Z,11.97
2022-10-22T08:51:48.521Z,11.18
2022-10-22T08:54:50.993Z,11.00
2022-10-22T08:58:06.900Z,10.63
2022-10-22T09:00:41.121Z,11.00
2022-10-22T09:03:49.947Z,10.57
2022-10-22T09:06:31.555Z,10.95
2022-10-22T09:09:02.465Z,9.85
2022-10-22T09:11:38.830Z,9.48
2022-10-22T09:14:09.207Z,10.23
2022-10-22T09:16:36.393Z,10.00
2022-10-22T09:19:24.517Z,8.65
2022-10-22T09:22:31.803Z,9.23
2022-10-22T09:25:23.995Z,8.50
2022-10-22T09:27:58.345Z,9.00
2022-10-22T09:30:30.660Z,8.55
2022-10-22T09:33:06.952Z,8.57
2022-10-22T09:35:51.110Z,8.90
2022-10-22T09:38:39.462Z,8.82
2022-10-22T09:41:09.101Z,10.02
2022-10-22T09:43:36.909Z,9.77
2022-10-22T09:46:14.249Z,9.82
2022-10-22T09:48:48.510Z,9.30
2022-10-22T09:51:22.275Z,9.60
2022-10-22T09:53:59.982Z,8.95
2022-10-22T09:56:43.336Z,10.18
2022-10-22T09:59:19.146Z,10.70
2022-10-22T10:01:47.077Z,10.50
2022-10-22T10:04:16.514Z,10.93
2022-10-22T10:06:45.148Z,11.10
2022-10-22T10:09:35.336Z,11.07
2022-10-22T10:12:36.597Z,10.55
2022-10-22T10:15:36.501Z,10.88
2022-10-22T10:18:24.356Z,11.38
2022-10-22T10:24:00.680Z,10.25
2022-10-22T10:26:45.988Z,10.02
2022-10-22T10:29:43.793Z,10.05
2022-10-22T10:32:45.082Z,10.50
2022-10-22T10:36:03.273Z,9.65
2022-10-22T10:38:40.647Z,9.25
2022-10-22T10:41:18.298Z,9.52
2022-10-22T10:44:14.170Z,8.90
2022-10-22T10:47:11.377Z,9.13
2022-10-22T10:49:38.381Z,8.90
2022-10-22T10:52:45.098Z,8.13
2022-10-22T10:55:22.399Z,9.25
2022-10-22T10:57:59.893Z,8.75
2022-10-22T11:00:36.471Z,9.07
2022-10-22T11:03:45.666Z,8.93
2022-10-22T11:06:19.411Z,8.90
2022-10-22T11:09:07.407Z,8.60
2022-10-22T11:11:48.817Z,8.93
2022-10-22T11:14:30.020Z,8.77
2022-10-22T11:17:18.087Z,8.93
2022-10-22T11:20:25.483Z,8.93
2022-10-22T11:23:21.672Z,8.80
2022-10-22T11:25:50.704Z,8.18
2022-10-22T11:28:28.799Z,8.07
2022-10-22T11:31:10.529Z,7.65
2022-10-22T11:33:48.797Z,7.90
2022-10-22T11:36:21.984Z,8.30
2022-10-22T11:38:50.032Z,7.97
2022-10-22T11:41:24.682Z,8.18
2022-10-22T11:44:22.598Z,8.10
2022-10-22T11:47:08.353Z,8.77
2022-10-22T11:49:56.183Z,8.63
2022-10-22T11:52:41.626Z,8.10
2022-10-22T11:55:45.430Z,8.18
2022-10-22T11:58:39.499Z,9.10
2022-10-22T12:01:09.587Z,9.18
2022-10-22T12:03:44.851Z,8.60
2022-10-22T12:06:19.782Z,8.90
2022-10-22T12:08:53.436Z,8.73
2022-10-22T12:11:47.773Z,8.20
2022-10-22T12:14:34.481Z,8.63
2022-10-22T12:17:14.871Z,8.77
2022-10-22T12:20:02.448Z,9.02
2022-10-22T12:22:37.667Z,8.93
2022-10-22T12:25:24.020Z,9.27
2022-10-22T12:27:58.750Z,8.35
2022-10-22T12:30:30.941Z,9.23
2022-10-22T12:33:03.491Z,8.63
2022-10-22T12:35:41.681Z,8.80
2022-10-22T12:38:20.355Z,9.60
2022-10-22T12:40:50.202Z,9.35
2022-10-22T12:43:29.803Z,10.65
2022-10-22T12:45:59.582Z,10.05
2022-10-22T12:48:42.371Z,9.20
2022-10-22T12:51:18.313Z,10.15
2022-10-22T12:53:53.634Z,9.68
2022-10-22T12:56:29.278Z,9.95
2022-10-22T12:59:15.058Z,10.13
2022-10-22T13:01:43.604Z,10.43
2022-10-22T13:04:23.179Z,10.95
2022-10-22T13:07:04.758Z,10.18
2022-10-22T13:09:59.693Z,9.95
2022-10-22T13:12:35.731Z,10.48
2022-10-22T13:15:36.343Z,10.48
2022-10-22T13:18:07.561Z,10.25
2022-10-22T13:20:37.402Z,9.82
2022-10-22T13:23:06.062Z,9.45
2022-10-22T13:25:39.538Z,10.00
2022-10-22T13:28:21.665Z,9.65
2022-10-22T13:31:00.876Z,9.60
2022-10-22T13:33:42.062Z,10.07
2022-10-22T13:36:15.658Z,9.52
2022-10-22T13:38:45.250Z,9.55
2022-10-22T13:41:26.094Z,9.57
2022-10-22T13:43:54.882Z,9.63
2022-10-22T13:46:24.165Z,10.98
2022-10-22T13:48:55.198Z,10.35
2022-10-22T13:51:29.327Z,10.05
2022-10-22T13:53:57.401Z,10.20
2022-10-22T13:56:24.506Z,10.50
2022-10-22T13:58:52.078Z,11.25
2022-10-22T14:01:27.419Z,10.63
2022-10-22T14:03:59.748Z,10.00
2022-10-22T14:06:31.622Z,10.27
2022-10-22T14:09:05.224Z,11.27
2022-10-22T14:11:32.703Z,10.00
2022-10-22T14:14:00.008Z,9.88
2022-10-22T14:16:31.219Z,10.32
2022-10-22T14:19:00.562Z,10.70
2022-10-22T14:21:37.384Z,11.05
2022-10-22T14:24:08.238Z,10.88
2022-10-22T14:26:37.916Z,10.60
2022-10-22T14:29:09.192Z,11.10
2022-10-22T14:31:43.229Z,10.25
2022-10-22T14:34:14.778Z,10.90
2022-10-22T14:36:43.853Z,10.07
2022-10-22T14:39:12.858Z,10.70
2022-10-22T14:41:41.730Z,10.60
2022-10-22T14:44:14.064Z,13.48
2022-10-22T14:49:11.321Z,12.30
2022-10-22T14:51:38.709Z,13.95
2022-10-22T14:54:06.139Z,12.90
2022-10-22T14:56:33.111Z,12.68
2022-10-22T14:59:00.261Z,11.65
2022-10-22T15:01:28.507Z,11.85
2022-10-22T15:03:55.793Z,12.60
2022-10-22T15:06:22.857Z,12.82
2022-10-22T15:08:50.805Z,12.95
2022-10-22T15:11:17.981Z,14.63
2022-10-22T15:13:45.319Z,13.73
2022-10-22T15:16:15.274Z,13.65
2022-10-22T15:18:42.812Z,13.55
2022-10-22T15:21:18.568Z,14.45
2022-10-22T15:23:45.969Z,13.70
2022-10-22T15:26:14.199Z,14.23
2022-10-22T15:28:42.566Z,15.30
2022-10-22T15:31:14.267Z,14.88
2022-10-22T15:33:43.663Z,16.23
2022-10-22T15:36:16.291Z,14.70
2022-10-22T15:38:44.167Z,15.43
2022-10-22T15:41:13.412Z,14.43
2022-10-22T15:43:40.781Z,13.55
2022-10-22T15:46:15.481Z,13.30
2022-10-22T15:48:43.834Z,14.38
2022-10-22T15:51:17.609Z,13.23
2022-10-22T15:53:52.921Z,13.32
2022-10-22T15:56:20.091Z,13.80
2022-10-22T15:58:47.605Z,14.13
2022-10-22T16:01:14.913Z,14.88
2022-10-22T16:03:42.364Z,13.40
2022-10-22T16:06:09.705Z,13.88
2022-10-22T16:08:38.181Z,13.00
2022-10-22T16:11:05.692Z,14.65
2022-10-22T16:13:33.049Z,13.75
2022-10-22T16:16:06.973Z,13.18
2022-10-22T16:18:34.243Z,13.85
2022-10-22T16:21:03.384Z,14.75
2022-10-22T16:23:30.599Z,14.88
2022-10-22T16:26:02.443Z,15.25
2022-10-22T16:28:29.742Z,15.43
2022-10-22T16:30:57.243Z,16.73
2022-10-22T16:33:24.726Z,17.33
2022-10-22T16:35:51.727Z,16.08
2022-10-22T16:38:19.005Z,15.50
2022-10-22T16:40:46.186Z,16.90
2022-10-22T16:43:13.351Z,16.77
2022-10-22T16:45:49.136Z,16.10
2022-10-22T16:48:18.718Z,17.17
2022-10-22T16:50:45.822Z,16.02
2022-10-22T16:53:13.254Z,16.95
2022-10-22T16:55:41.312Z,16.92
2022-10-22T16:58:08.501Z,18.10
2022-10-22T17:00:36.667Z,17.67
2022-10-22T17:03:04.278Z,17.10
2022-10-22T17:05:31.700Z,17.75
2022-10-22T17:07:58.798Z,17.15
2022-10-22T17:10:26.525Z,17.25
2022-10-22T17:12:53.770Z,16.73
2022-10-22T17:15:20.909Z,18.02
2022-10-22T17:17:52.468Z,17.15
2022-10-22T17:20:20.354Z,17.60
2022-10-22T17:22:49.801Z,18.17
2022-10-22T17:25:24.581Z,18.17
2022-10-22T17:27:53.965Z,18.38
2022-10-22T17:30:24.806Z,19.30
2022-10-22T17:32:55.160Z,19.10
2022-10-22T17:35:22.602Z,21.60
2022-10-22T17:37:49.771Z,20.65
2022-10-22T17:40:17.145Z,21.13
2022-10-22T17:42:45.379Z,20.52
2022-10-22T17:45:12.479Z,20.42
2022-10-22T17:47:40.455Z,21.55
2022-10-22T17:50:08.722Z,21.77
2022-10-22T17:52:36.312Z,22.60
2022-10-22T17:55:04.537Z,22.23
2022-10-22T17:57:31.825Z,22.30
2022-10-22T17:59:58.810Z,23.77
2022-10-22T18:02:26.239Z,24.77
2022-10-22T18:04:53.279Z,25.67
2022-10-22T18:07:21.025Z,26.73
2022-10-22T18:09:48.623Z,27.42
2022-10-22T18:12:17.992Z,27.73
2022-10-22T18:14:47.006Z,29.15
2022-10-22T18:17:16.063Z,30.88
2022-10-22T18:19:43.131Z,31.42
2022-10-22T18:22:10.482Z,31.55
2022-10-22T18:24:38.930Z,30.98
2022-10-22T18:27:06.618Z,32.95
2022-10-22T18:29:33.850Z,32.42
2022-10-22T18:32:01.210Z,30.38
2022-10-22T18:34:30.252Z,30.75
2022-10-22T18:36:58.234Z,28.10
2022-10-22T18:39:26.055Z,27.95
2022-10-22T18:41:53.345Z,24.65
2022-10-22T18:44:20.351Z,24.05
2022-10-22T18:46:47.917Z,22.00
2022-10-22T18:49:18.935Z,20.65
2022-10-22T18:51:52.418Z,19.63
2022-10-22T18:54:23.595Z,18.88
2022-10-22T18:56:55.521Z,17.77
2022-10-22T18:59:26.914Z,17.15
2022-10-22T19:01:57.679Z,15.63
2022-10-22T19:04:25.094Z,14.80
2022-10-22T19:06:52.639Z,14.48
2022-10-22T19:09:20.049Z,13.88
2022-10-22T19:11:47.541Z,14.13
2022-10-22T19:14:19.541Z,13.45
2022-10-22T19:19:18.851Z,11.80
2022-10-22T19:21:47.413Z,11.98
2022-10-22T19:24:17.682Z,11.85
2022-10-22T19:26:46.867Z,11.25
2022-10-22T19:29:17.963Z,12.45
2022-10-22T19:31:46.051Z,11.23
2022-10-22T19:34:14.201Z,12.43
2022-10-22T19:36:42.176Z,11.80
2022-10-22T19:39:09.341Z,11.82
2022-10-22T19:41:37.055Z,10.77
2022-10-22T19:44:04.700Z,11.13
2022-10-22T19:46:32.661Z,11.25
2022-10-22T19:49:02.809Z,10.25
2022-10-22T19:51:34.446Z,10.43
2022-10-22T19:54:15.663Z,10.25
2022-10-22T19:56:43.346Z,9.10
2022-10-22T19:59:10.490Z,9.32
2022-10-22T20:01:38.058Z,8.75
2022-10-22T20:04:05.790Z,8.48
2022-10-22T20:06:33.254Z,9.10
2022-10-22T20:09:00.293Z,9.20
2022-10-22T20:11:30.058Z,9.50
2022-10-22T20:13:58.931Z,9.35
2022-10-22T20:16:29.943Z,9.57
2022-10-22T20:19:06.123Z,10.13
2022-10-22T20:21:34.942Z,10.23
2022-10-22T20:24:02.976Z,10.15
2022-10-22T20:26:31.661Z,10.35
2022-10-22T20:28:59.452Z,10.02
2022-10-22T20:31:29.589Z,10.85
2022-10-22T20:33:59.512Z,10.20
2022-10-22T20:36:29.359Z,10.23
2022-10-22T20:39:06.329Z,9.65
2022-10-22T20:41:37.663Z,10.68
2022-10-22T20:44:06.082Z,10.82
2022-10-22T20:46:35.530Z,10.00
2022-10-22T20:49:08.766Z,10.20
2022-10-22T20:51:37.551Z,10.20
2022-10-22T20:54:07.459Z,9.80
2022-10-22T20:56:37.888Z,10.73
2022-10-22T20:59:05.873Z,10.95
2022-10-22T21:01:39.122Z,10.32
2022-10-22T21:04:07.769Z,10.00
2022-10-22T21:06:38.146Z,10.05
2022-10-22T21:09:11.601Z,10.23
2022-10-22T21:11:40.946Z,9.70
2022-10-22T21:14:10.997Z,9.45
2022-10-22T21:16:46.119Z,9.30
2022-10-22T21:19:13.332Z,9.55
2022-10-22T21:21:41.067Z,8.90
2022-10-22T21:24:08.870Z,9.82
2022-10-22T21:26:38.446Z,8.70
2022-10-22T21:29:05.693Z,8.82
2022-10-22T21:31:33.422Z,8.45
2022-10-22T21:34:01.127Z,8.32
2022-10-22T21:36:28.514Z,8.90
2022-10-22T21:38:55.621Z,9.25
2022-10-22T21:41:24.452Z,9.00
2022-10-22T21:43:51.869Z,9.05
2022-10-22T21:46:23.555Z,8.10
2022-10-22T21:49:03.262Z,7.20
2022-10-22T21:51:35.204Z,7.25
2022-10-22T21:54:02.507Z,7.40
2022-10-22T21:56:35.553Z,7.47
2022-10-22T21:59:05.646Z,7.80
2022-10-22T22:01:33.841Z,8.38
2022-10-22T22:04:01.634Z,7.32
2022-10-22T22:06:33.360Z,7.70
2022-10-22T22:09:03.225Z,7.50
2022-10-22T22:11:31.043Z,7.82
2022-10-22T22:13:59.141Z,7.55
2022-10-22T22:16:30.945Z,7.68
2022-10-22T22:19:08.919Z,6.60
2022-10-22T22:21:39.627Z,7.32
2022-10-22T22:24:09.544Z,6.50
2022-10-22T22:26:37.381Z,7.13
2022-10-22T22:29:04.851Z,7.03
2022-10-22T22:31:34.853Z,7.00
2022-10-22T22:34:13.695Z,6.63
2022-10-22T22:36:45.889Z,6.82
2022-10-22T22:39:25.248Z,7.05
2022-10-22T22:41:52.894Z,7.50
2022-10-22T22:44:19.903Z,6.47
2022-10-22T22:46:47.114Z,6.53
2022-10-22T22:49:14.720Z,6.40
2022-10-22T22:51:43.394Z,6.20
2022-10-22T22:54:11.134Z,5.72
2022-10-22T22:56:38.707Z,5.82
2022-10-22T22:59:06.313Z,5.93
2022-10-22T23:01:37.056Z,5.43
2022-10-22T23:04:12.260Z,5.05
2022-10-22T23:06:40.126Z,5.63
2022-10-22T23:09:10.604Z,5.40
2022-10-22T23:11:39.129Z,5.43
2022-10-22T23:14:08.288Z,5.50
2022-10-22T23:16:40.053Z,5.13
2022-10-22T23:19:07.313Z,5.70
2022-10-22T23:21:38.830Z,5.60
2022-10-22T23:24:11.129Z,5.78
2022-10-22T23:26:42.529Z,5.80
2022-10-22T23:29:23.412Z,6.60
2022-10-22T23:31:52.036Z,5.93
2022-10-22T23:34:23.939Z,6.05
2022-10-22T23:36:52.022Z,6.05
2022-10-22T23:39:23.474Z,6.20
2022-10-22T23:41:53.142Z,6.60
2022-10-22T23:44:22.122Z,5.90
2022-10-22T23:46:50.145Z,6.18
2022-10-22T23:49:17.953Z,5.97
2022-10-22T23:51:45.565Z,5.50
2022-10-22T23:54:16.050Z,5.95
2022-10-22T23:56:44.191Z,5.55
2022-10-22T23:59:11.767Z,5.40
